2019 Ballard Cup Series II
Jun 3, 2019

Sloop Tavern Yacht Club

Committee Boat - Kowloon

Race 1
R1 R2 R3 Series Overall

Class: 1 - Non-Flying Sails Division - Start: 18:15:00 - Course: NMWN - Distance: 5.114      

Boat Name SailNo Boat Type Skipper Rating Club Start Finish Elapsed Corrected BCE Place OA
Whistling Swan 69494 Islander 36-1 Bill Pirrie 174 STYC 18:15:00 19:12:52 0:57:52 0:43:02 0:00:00 1 17
Amoretto 79104 Jeanneau Arcada Martin Bower 204 STYC 18:15:00 19:17:53 1:02:53 0:45:30 0:02:28 2 28
Wind Dancer 46489 Tartan 3800 Chris McMuldroch 153 STYC 18:15:00 19:14:59 0:59:59 0:46:57 0:03:55 3 35
Blue Lullaby 391 Newport 28-2 John H Endresen 231 STYC 18:15:00 19:22:32 1:07:32 0:47:51 0:04:49 4 36
Steve Zeliadt 97971 Catalina 380 Eric Olson 153 STYC 18:15:00 19:25:17 1:10:17 0:57:15 0:14:13 5 46
White Rabbit 69366 J/40 Bradley Music 102 SBYC 18:15:00 OCS 6 47
Billabong 4200 Lancer 36 Robert Kirkman 153 STYC 18:15:00 DNC 7 48
Frog Prints 79070 Dufr D 34 Tim Onders 192 STYC 18:15:00 DNC 7 48
Midnight Escape 28206 Kirby (Mirage) 25 Borge Ellingsen 204 STYC 18:15:00 DNC 7 48
No Ka Oi 15 J/80 Amy Deckelbaum 141 SSC 18:15:00 DNC 7 48
Stardust 79977 Hunter Legend 37.5 Tito Soto 153 STYC 18:15:00 DNC 7 48

Class: 2 - Flying Sails Division - Start: 18:20:00 - Course: NMWN - Distance: 5.114      

Boat Name SailNo Boat Type Skipper Rating Club Start Finish Elapsed Corrected BCE Place OA
Water Street 1376 Cal 2-24 Mark Jackson 252 STYC 18:20:00 19:24:09 1:04:09 0:42:40 0:00:00 1 15
Rock Lobster 59306 San Juan 7.7 Trent Piepho 210 STYC 18:20:00 19:22:48 1:02:48 0:44:54 0:02:14 2 23
Aquavit 3242 Interational Folkboat David Sinson 285 STYC 18:20:00 DNC 4 48
Lady Too 59382 San Jaun 28 Damon Darley 201 STYC 18:20:00 DNC 4 48
Wavelength 49922 Ranger 29 Eric Dunkel 198 STYC 18:20:00 DNC 4 48

Class: 3 - Flying Sails Division - Start: 18:25:00 - Course: NMWN - Distance: 5.114      

Boat Name SailNo Boat Type Skipper Rating Club Start Finish Elapsed Corrected BCE Place OA
Elixir 29 Aphrodite 101 Megan Kogut 150 STYC 18:25:00 19:19:55 0:54:55 0:42:08 0:00:00 1 9
More Uff Da 26 Moore 24-1 Ben Braden 168 STYC 18:25:00 19:21:38 0:56:38 0:42:19 0:00:11 2 11
La Lucha Moore 131 Moore 24 Joe Grieser 168 STYC 18:25:00 19:21:57 0:56:57 0:42:38 0:00:30 3 14
The Banana Stand 104 Santa Cruz 27 Adam Yuret 162 STYC 18:25:00 19:23:52 0:58:52 0:45:04 0:02:56 4 26
Wild Card 55 Santa Cruz 27 Mike Cain 141 STYC 18:25:00 19:28:02 1:03:02 0:51:01 0:08:53 5 40
Perfectly Strange 87210 Pocket Rocket 22-1 Paul Kalina 174 STYC 18:25:00 19:34:53 1:09:53 0:55:03 0:12:55 6 45
Norn 49450 Santa Cruz 27 Mitch Leupold 150 STYC 18:25:00 DNC 8 48
Nw Filth 161 Martin 242 Jonathan Anderson 168 STYC 18:25:00 DNC 8 48
Three Ring Circus 37 Olson 25-1 Nate Creitz 174 STYC 18:25:00 DNC 8 48
Zap 59269 Zap 26 Don Sarin 147 STYC 18:25:00 DNC 8 48

Class: 4 - Flying Sails Division - Start: 18:30:00 - Course: NMWN - Distance: 5.114      

Boat Name SailNo Boat Type Skipper Rating Club Start Finish Elapsed Corrected BCE Place OA
Grayling 7 Q-Class Duke H Phan 144 STYC 18:30:00 19:24:12 0:54:12 0:41:56 0:00:00 1 8
Airloom 69410 Baba 40-2 Tim Morgenroth 168 STYC 18:30:00 19:27:30 0:57:30 0:43:11 0:01:15 2 19
Velella 150 Wylie 31 Ryan Helling 165 STYC 18:30:00 19:29:01 0:59:01 0:44:57 0:03:01 3 25
Mata Hari 1660 Catalina 36 Mkii Jeff Blyth 147 STYC 18:30:00 19:28:17 0:58:17 0:45:45 0:03:49 4 31
Sea Haven 930 Catalina 34 Cary Kaczowka 153 STYC 18:30:00 19:34:10 1:04:10 0:51:08 0:09:12 5 41
20degrees 18602 Wylie 34 Duncan Chalmers 150 STYC 18:30:00 DNF 6 47
Celtic Breeze 233 Ericson 35 Mk3 Glenn Knitter 159 STYC 18:30:00 DNF 6 47
Kamoon Na Jeanneau Michael Taft 163 STYC 18:30:00 DNC 7 48

Class: 5 - Flying Sails Division - Start: 18:35:00 - Course: NMWN - Distance: 5.114      

Boat Name SailNo Boat Type Skipper Rating Club Start Finish Elapsed Corrected BCE Place OA
Crazy Ivan USA-151 J/80 Bryan Rhodes 129 STYC 18:35:00 19:28:43 0:53:43 0:42:43 0:00:00 1 16
Reckless 296 J/80 Emre Sezer 129 STYC 18:35:00 19:30:55 0:55:55 0:44:55 0:02:12 2 24
Underdog 85 J/80 Dulnath Wijayratne 129 SSC 18:35:00 19:32:49 0:57:49 0:46:49 0:04:06 3 34
Jolly Green 1 J/80 Mike Poole 129 SSC 18:35:00 19:34:33 0:59:33 0:48:33 0:05:50 4 37
Namaste 257 J/80 John Lueders 129 SSC 18:35:00 19:34:46 0:59:46 0:48:46 0:06:03 5 38
Taj Mahal 445 J/80 Ian Wong 129 SSC 18:35:00 19:35:40 1:00:40 0:49:40 0:06:57 6 39
Uproar 41 J/80 Steve Neidhardt 129 SSC 18:35:00 19:37:32 1:02:32 0:51:32 0:08:49 7 42
Stellar J 546 J/80 Andreas Wieberneit 129 SSC 18:35:00 19:37:38 1:02:38 0:51:38 0:08:55 8 43
Fearful Symmetry 331 J/80 Elise Sivilay 129 SSC 18:35:00 19:37:46 1:02:46 0:51:46 0:09:03 9 44

Class: 6 - Flying Sails Division - Start: 18:40:00 - Course: NMWN - Distance: 5.114      

Boat Name SailNo Boat Type Skipper Rating Club Start Finish Elapsed Corrected BCE Place OA
Different Drummer 52804 Wauqueiz Centurion 40s Charles Hill 81 STYC 18:40:00 19:27:32 0:47:32 0:40:38 0:00:00 1 2
Poke & Destroy 69061 Evelyn 32-2 Alex P Simanis 93 STYC 18:40:00 19:29:50 0:49:50 0:41:54 0:01:16 2 6
Wizard 40427 J/27 Leo Morales 135 WYC 18:40:00 19:33:25 0:53:25 0:41:55 0:01:17 3 7
Wings 244 J/29 (Fractional Rig) Jim Moynihan 120 STYC 18:40:00 19:33:50 0:53:50 0:43:36 0:02:58 4 21
Gaucho 68 Ross 930 John Cahill 114 CYC 18:40:00 OCS 5 47
Latitude 60680 Jeanneau 409 Bill Gibson 93 STYC 18:40:00 DNC 6 48
Outlaw 77108 J/30 Cindy Gossett 138 STYC 18:40:00 DNC 6 48
Poisson Soluble 69351 Hobie 33 Robert Horsley 96 STYC 18:40:00 DNC 6 48
Ruby 87603 J/29 Mh John Kazaras 120 STYC 18:40:00 DNC 6 48
Kowloon 17 Olson 911 Ken Chin 129 STYC 18:40:00 CB 6 48

Class: 7 - Flying Sails Division - Start: 18:45:00 - Course: NMWN - Distance: 5.114      

Boat Name SailNo Boat Type Skipper Rating Club Start Finish Elapsed Corrected BCE Place OA
Corvo 105 475 J/105 Tom Kerr 93 STYC 18:45:00 19:33:09 0:48:09 0:40:13 0:00:00 1 1
Peer Gynt 235 J/105 Sara Billey 93 STYC 18:45:00 19:36:27 0:51:27 0:43:31 0:03:18 2 20
Puff 115 J/105 Ryan Porter 93 SSC 18:45:00 19:37:46 0:52:46 0:44:50 0:04:37 3 22
Paladin 412 J/105 Phil Bylsma 93 SSC 18:45:00 19:38:22 0:53:22 0:45:26 0:05:13 4 27
Creative 51911 J/105 Lloyd Fogg 93 SSC 18:45:00 19:38:28 0:53:28 0:45:32 0:05:19 5 29
Avalanche 495 J/105 Jeremy Boynes 93 STYC 18:45:00 19:38:34 0:53:34 0:45:38 0:05:25 6 30
Liftoff 621 J/105 Philippe M Le Mouel 93 STYC 18:45:00 19:38:59 0:53:59 0:46:03 0:05:50 7 32.5

Class: 8 - Flying Sails Division - Start: 18:50:00 - Course: NMWN - Distance: 5.114      

Boat Name SailNo Boat Type Skipper Rating Club Start Finish Elapsed Corrected BCE Place OA
Eclipse 256 J/109-2 Fraser 69 STYC 18:50:00 19:36:40 0:46:40 0:40:47 0:00:00 1 3
Freda Mae 79030 Multihull - Corsair F31 Vincent Depillis -9 Northwest Multihull Assocation 18:50:00 19:30:39 0:40:39 0:41:25 0:00:38 2 4
Project Mayhem USA 64 Farr 30 Grady Morgan 54 CYC 18:50:00 19:36:09 0:46:09 0:41:33 0:00:46 3 5
Lapa 309 J/109 Michael Campbell 69 STYC 18:50:00 19:38:06 0:48:06 0:42:13 0:01:26 4 10
Those Guys 18155 J/35 Jenny Heins 72 STYC 18:50:00 19:38:41 0:48:41 0:42:33 0:01:46 5 12
With Grace 50791 J/120 Ken S Jones 57 STYC 18:50:00 19:37:28 0:47:28 0:42:37 0:01:50 6 13
Nefarious USA 53 Farr 30 Daniel Randolph 54 STYC 18:50:00 19:37:41 0:47:41 0:43:05 0:02:18 7 18
Tachyon 36000 Farr 39 C/R Jack Yinger 18 CYC 18:50:00 19:37:35 0:47:35 0:46:03 0:05:16 8 32.5
Bat Out Of Hell USA 55 Farr 30 Lance Staughton 54 STYC 18:50:00 DNF 9 47
Escape 69160 Corsair F -27 Yury Palatnik 79 STYC 18:50:00 DNC 10 48

STYC scoring (Tue, May 21, 2019 - 00:05:45 ver)